sensor_id;sensor_type;location;lat;lon;timestamp;pressure;altitude;pressure_sealevel;temperature;humidity
37450;BME280;23309;52.582;13.406;2022-11-14T00:01:10;101920.69;;;15.55;46.25
37450;BME280;23309;52.582;13.406;2022-11-14T00:03:37;101905.94;;;15.49;46.11
37450;BME280;23309;52.582;13.406;2022-11-14T00:06:11;101909.22;;;15.62;45.78
37450;BME280;23309;52.582;13.406;2022-11-14T00:08:37;101896.41;;;15.45;45.95
37450;BME280;23309;52.582;13.406;2022-11-14T00:11:04;101901.38;;;15.50;45.98
37450;BME280;23309;52.582;13.406;2022-11-14T00:13:32;101900.84;;;15.56;45.96
37450;BME280;23309;52.582;13.406;2022-11-14T00:16:03;101889.19;;;15.46;46.16
37450;BME280;23309;52.582;13.406;2022-11-14T00:18:32;101904.53;;;15.55;46.06
37450;BME280;23309;52.582;13.406;2022-11-14T00:20:59;101902.25;;;15.50;46.29
37450;BME280;23309;52.582;13.406;2022-11-14T00:23:25;101886.50;;;15.46;45.94
37450;BME280;23309;52.582;13.406;2022-11-14T00:25:51;101876.13;;;15.41;45.97
37450;BME280;23309;52.582;13.406;2022-11-14T00:28:17;101878.44;;;15.46;46.12
37450;BME280;23309;52.582;13.406;2022-11-14T00:30:48;101881.25;;;15.54;46.01
37450;BME280;23309;52.582;13.406;2022-11-14T00:33:20;101881.25;;;15.44;46.03
37450;BME280;23309;52.582;13.406;2022-11-14T00:35:56;101869.75;;;15.42;45.87
37450;BME280;23309;52.582;13.406;2022-11-14T00:38:22;101858.34;;;15.29;46.12
37450;BME280;23309;52.582;13.406;2022-11-14T00:40:50;101857.66;;;15.27;46.38
37450;BME280;23309;52.582;13.406;2022-11-14T00:43:16;101867.44;;;15.28;46.32
37450;BME280;23309;52.582;13.406;2022-11-14T00:45:44;101858.66;;;15.26;46.13
37450;BME280;23309;52.582;13.406;2022-11-14T00:48:13;101872.16;;;15.36;46.33
37450;BME280;23309;52.582;13.406;2022-11-14T00:50:42;101862.19;;;15.27;46.36
37450;BME280;23309;52.582;13.406;2022-11-14T00:53:11;101853.41;;;15.25;46.61
37450;BME280;23309;52.582;13.406;2022-11-14T00:55:37;101854.22;;;15.25;46.50
37450;BME280;23309;52.582;13.406;2022-11-14T00:58:05;101862.47;;;15.33;46.39
37450;BME280;23309;52.582;13.406;2022-11-14T01:00:31;101870.56;;;15.33;46.57
37450;BME280;23309;52.582;13.406;2022-11-14T01:02:57;101862.94;;;15.38;46.71
37450;BME280;23309;52.582;13.406;2022-11-14T01:05:27;101854.03;;;15.38;46.59
37450;BME280;23309;52.582;13.406;2022-11-14T01:07:53;101851.72;;;15.33;46.65
37450;BME280;23309;52.582;13.406;2022-11-14T01:10:22;101841.59;;;15.16;46.69
37450;BME280;23309;52.582;13.406;2022-11-14T01:12:52;101849.16;;;15.22;46.82
37450;BME280;23309;52.582;13.406;2022-11-14T01:15:21;101829.44;;;15.12;46.84
37450;BME280;23309;52.582;13.406;2022-11-14T01:17:49;101829.28;;;15.14;46.88
37450;BME280;23309;52.582;13.406;2022-11-14T01:20:16;101844.34;;;15.26;46.77
37450;BME280;23309;52.582;13.406;2022-11-14T01:22:42;101844.03;;;15.19;47.11
37450;BME280;23309;52.582;13.406;2022-11-14T01:25:08;101833.69;;;15.15;46.65
37450;BME280;23309;52.582;13.406;2022-11-14T01:27:37;101831.84;;;15.15;47.07
37450;BME280;23309;52.582;13.406;2022-11-14T01:30:07;101826.00;;;15.10;46.97
37450;BME280;23309;52.582;13.406;2022-11-14T01:32:34;101817.78;;;15.02;46.61
37450;BME280;23309;52.582;13.406;2022-11-14T01:35:00;101813.13;;;15.04;46.94
37450;BME280;23309;52.582;13.406;2022-11-14T01:37:27;101803.47;;;15.02;46.94
37450;BME280;23309;52.582;13.406;2022-11-14T01:39:55;101789.13;;;14.92;47.28
37450;BME280;23309;52.582;13.406;2022-11-14T01:42:21;101801.75;;;15.01;46.80
37450;BME280;23309;52.582;13.406;2022-11-14T01:44:51;101796.25;;;14.93;46.97
37450;BME280;23309;52.582;13.406;2022-11-14T01:47:22;101803.31;;;14.94;47.06
37450;BME280;23309;52.582;13.406;2022-11-14T01:49:56;101798.19;;;14.91;47.48
37450;BME280;23309;52.582;13.406;2022-11-14T01:52:32;101772.00;;;14.83;47.27
37450;BME280;23309;52.582;13.406;2022-11-14T01:55:02;101776.38;;;14.75;47.58
37450;BME280;23309;52.582;13.406;2022-11-14T01:57:32;101776.06;;;14.78;47.51
37450;BME280;23309;52.582;13.406;2022-11-14T02:00:09;101783.75;;;14.82;47.27
37450;BME280;23309;52.582;13.406;2022-11-14T02:02:37;101786.25;;;14.74;47.51
37450;BME280;23309;52.582;13.406;2022-11-14T02:05:08;101779.75;;;14.77;47.39
37450;BME280;23309;52.582;13.406;2022-11-14T02:07:38;101764.03;;;14.72;47.35
37450;BME280;23309;52.582;13.406;2022-11-14T02:10:14;101779.75;;;14.77;47.38
37450;BME280;23309;52.582;13.406;2022-11-14T02:12:43;101757.75;;;14.53;47.68
37450;BME280;23309;52.582;13.406;2022-11-14T02:15:14;101753.94;;;14.55;47.83
37450;BME280;23309;52.582;13.406;2022-11-14T02:17:40;101763.31;;;14.61;47.97
37450;BME280;23309;52.582;13.406;2022-11-14T02:20:19;101749.84;;;14.61;47.76
37450;BME280;23309;52.582;13.406;2022-11-14T02:22:47;101763.13;;;14.62;48.20
37450;BME280;23309;52.582;13.406;2022-11-14T02:25:16;101751.94;;;14.57;48.41
37450;BME280;23309;52.582;13.406;2022-11-14T02:27:47;101749.84;;;14.61;48.17
37450;BME280;23309;52.582;13.406;2022-11-14T02:30:21;101736.53;;;14.69;47.73
37450;BME280;23309;52.582;13.406;2022-11-14T02:32:47;101756.63;;;14.65;47.89
37450;BME280;23309;52.582;13.406;2022-11-14T02:35:16;101748.84;;;14.62;48.31
37450;BME280;23309;52.582;13.406;2022-11-14T02:37:42;101746.47;;;14.68;48.08
37450;BME280;23309;52.582;13.406;2022-11-14T02:40:11;101730.91;;;14.72;48.23
37450;BME280;23309;52.582;13.406;2022-11-14T02:42:37;101736.31;;;14.81;48.29
37450;BME280;23309;52.582;13.406;2022-11-14T02:45:06;101736.75;;;14.86;48.13
37450;BME280;23309;52.582;13.406;2022-11-14T02:47:38;101736.31;;;14.91;47.98
37450;BME280;23309;52.582;13.406;2022-11-14T02:50:08;101722.34;;;14.97;47.61
37450;BME280;23309;52.582;13.406;2022-11-14T02:52:37;101728.84;;;14.94;47.58
37450;BME280;23309;52.582;13.406;2022-11-14T02:55:14;101711.69;;;14.86;48.07
37450;BME280;23309;52.582;13.406;2022-11-14T02:57:40;101722.31;;;14.87;48.04
37450;BME280;23309;52.582;13.406;2022-11-14T03:00:08;101708.28;;;14.84;47.71
37450;BME280;23309;52.582;13.406;2022-11-14T03:02:35;101718.22;;;14.93;47.63
37450;BME280;23309;52.582;13.406;2022-11-14T03:05:02;101719.03;;;14.93;47.58
37450;BME280;23309;52.582;13.406;2022-11-14T03:07:28;101708.41;;;14.92;47.46
37450;BME280;23309;52.582;13.406;2022-11-14T03:09:57;101700.78;;;14.87;47.51
37450;BME280;23309;52.582;13.406;2022-11-14T03:12:25;101711.13;;;15.01;47.35
37450;BME280;23309;52.582;13.406;2022-11-14T03:14:51;101705.91;;;14.90;47.38
37450;BME280;23309;52.582;13.406;2022-11-14T03:17:17;101696.81;;;14.91;47.54
37450;BME280;23309;52.582;13.406;2022-11-14T03:19:45;101692.84;;;14.86;47.66
37450;BME280;23309;52.582;13.406;2022-11-14T03:22:14;101703.63;;;14.95;47.61
37450;BME280;23309;52.582;13.406;2022-11-14T03:24:42;101701.91;;;14.85;47.67
37450;BME280;23309;52.582;13.406;2022-11-14T03:27:10;101697.09;;;14.88;47.60
37450;BME280;23309;52.582;13.406;2022-11-14T03:29:37;101691.41;;;14.82;47.34
37450;BME280;23309;52.582;13.406;2022-11-14T03:32:05;101695.53;;;14.86;47.73
37450;BME280;23309;52.582;13.406;2022-11-14T03:34:33;101698.13;;;14.97;47.68
37450;BME280;23309;52.582;13.406;2022-11-14T03:36:59;101681.38;;;14.93;47.40
37450;BME280;23309;52.582;13.406;2022-11-14T03:39:27;101678.28;;;14.98;47.34
37450;BME280;23309;52.582;13.406;2022-11-14T03:41:53;101680.97;;;14.98;47.68
37450;BME280;23309;52.582;13.406;2022-11-14T03:44:21;101677.28;;;14.99;47.28
37450;BME280;23309;52.582;13.406;2022-11-14T03:46:50;101669.78;;;15.02;47.27
37450;BME280;23309;52.582;13.406;2022-11-14T03:49:19;101665.25;;;14.93;47.04
37450;BME280;23309;52.582;13.406;2022-11-14T03:51:46;101671.47;;;14.94;47.30
37450;BME280;23309;52.582;13.406;2022-11-14T03:54:12;101678.72;;;15.03;47.32
37450;BME280;23309;52.582;13.406;2022-11-14T03:56:38;101675.88;;;15.04;47.13
37450;BME280;23309;52.582;13.406;2022-11-14T03:59:05;101677.13;;;15.10;47.20
37450;BME280;23309;52.582;13.406;2022-11-14T04:01:37;101675.31;;;15.20;46.78
37450;BME280;23309;52.582;13.406;2022-11-14T04:04:03;101662.28;;;15.06;46.87
37450;BME280;23309;52.582;13.406;2022-11-14T04:06:30;101662.97;;;15.08;46.66
37450;BME280;23309;52.582;13.406;2022-11-14T04:08:58;101669.50;;;15.15;46.62
37450;BME280;23309;52.582;13.406;2022-11-14T04:11:25;101662.41;;;15.14;46.97
37450;BME280;23309;52.582;13.406;2022-11-14T04:13:51;101667.22;;;15.10;46.71
37450;BME280;23309;52.582;13.406;2022-11-14T04:16:19;101655.47;;;14.92;46.91
37450;BME280;23309;52.582;13.406;2022-11-14T04:18:48;101655.34;;;14.94;47.34
37450;BME280;23309;52.582;13.406;2022-11-14T04:21:15;101659.59;;;14.96;47.24
37450;BME280;23309;52.582;13.406;2022-11-14T04:23:44;101656.75;;;14.88;47.10
37450;BME280;23309;52.582;13.406;2022-11-14T04:26:10;101653.63;;;14.83;47.38
37450;BME280;23309;52.582;13.406;2022-11-14T04:28:40;101653.22;;;14.88;47.48
37450;BME280;23309;52.582;13.406;2022-11-14T04:31:06;101639.63;;;14.80;47.41
37450;BME280;23309;52.582;13.406;2022-11-14T04:33:33;101635.66;;;14.84;47.13
37450;BME280;23309;52.582;13.406;2022-11-14T04:36:01;101653.34;;;14.86;47.48
37450;BME280;23309;52.582;13.406;2022-11-14T04:38:29;101620.22;;;14.67;47.36
37450;BME280;23309;52.582;13.406;2022-11-14T04:41:01;101643.59;;;14.85;47.32
37450;BME280;23309;52.582;13.406;2022-11-14T04:43:27;101624.59;;;14.68;47.12
37450;BME280;23309;52.582;13.406;2022-11-14T04:45:54;101635.47;;;14.66;47.73
37450;BME280;23309;52.582;13.406;2022-11-14T04:48:22;101625.72;;;14.65;47.73
37450;BME280;23309;52.582;13.406;2022-11-14T04:50:51;101611.84;;;14.60;47.48
37450;BME280;23309;52.582;13.406;2022-11-14T04:53:19;101624.59;;;14.68;47.27
37450;BME280;23309;52.582;13.406;2022-11-14T04:55:45;101621.47;;;14.63;47.61
37450;BME280;23309;52.582;13.406;2022-11-14T04:58:11;101628.53;;;14.64;47.63
37450;BME280;23309;52.582;13.406;2022-11-14T05:00:38;101629.97;;;14.68;47.75
37450;BME280;23309;52.582;13.406;2022-11-14T05:03:05;101616.34;;;14.60;47.65
37450;BME280;23309;52.582;13.406;2022-11-14T05:05:32;101603.66;;;14.62;47.37
37450;BME280;23309;52.582;13.406;2022-11-14T05:08:00;101608.88;;;14.54;47.42
37450;BME280;23309;52.582;13.406;2022-11-14T05:10:29;101616.97;;;14.63;47.77
37450;BME280;23309;52.582;13.406;2022-11-14T05:12:57;101614.81;;;14.57;47.30
37450;BME280;23309;52.582;13.406;2022-11-14T05:15:23;101607.88;;;14.55;47.50
37450;BME280;23309;52.582;13.406;2022-11-14T05:17:49;101594.13;;;14.48;47.24
37450;BME280;23309;52.582;13.406;2022-11-14T05:20:15;101603.63;;;14.52;47.54
37450;BME280;23309;52.582;13.406;2022-11-14T05:22:41;101623.88;;;14.66;47.28
37450;BME280;23309;52.582;13.406;2022-11-14T05:25:09;101611.41;;;14.65;47.36
37450;BME280;23309;52.582;13.406;2022-11-14T05:27:37;101612.69;;;14.70;47.35
37450;BME280;23309;52.582;13.406;2022-11-14T05:30:06;101619.34;;;14.66;47.42
37450;BME280;23309;52.582;13.406;2022-11-14T05:32:35;101621.06;;;14.67;47.39
37450;BME280;23309;52.582;13.406;2022-11-14T05:35:04;101607.63;;;14.67;47.53
37450;BME280;23309;52.582;13.406;2022-11-14T05:37:30;101592.03;;;14.61;47.68
37450;BME280;23309;52.582;13.406;2022-11-14T05:40:14;101605.94;;;14.85;47.14
37450;BME280;23309;52.582;13.406;2022-11-14T05:42:43;101621.91;;;14.77;47.46
37450;BME280;23309;52.582;13.406;2022-11-14T05:45:10;101626.31;;;14.78;47.15
37450;BME280;23309;52.582;13.406;2022-11-14T05:47:36;101620.91;;;14.78;47.41
37450;BME280;23309;52.582;13.406;2022-11-14T05:50:04;101603.91;;;14.78;47.21
37450;BME280;23309;52.582;13.406;2022-11-14T05:52:32;101611.72;;;14.81;47.17
37450;BME280;23309;52.582;13.406;2022-11-14T05:54:58;101593.44;;;14.65;47.09
37450;BME280;23309;52.582;13.406;2022-11-14T05:57:25;101600.66;;;14.74;47.27
37450;BME280;23309;52.582;13.406;2022-11-14T05:59:53;101618.63;;;14.74;47.25
37450;BME280;23309;52.582;13.406;2022-11-14T06:02:19;101608.19;;;14.71;47.29
37450;BME280;23309;52.582;13.406;2022-11-14T06:04:45;101608.59;;;14.76;47.28
37450;BME280;23309;52.582;13.406;2022-11-14T06:07:11;101618.94;;;14.90;47.30
37450;BME280;23309;52.582;13.406;2022-11-14T06:09:37;101591.06;;;14.81;46.96
37450;BME280;23309;52.582;13.406;2022-11-14T06:12:06;101609.31;;;14.87;46.90
37450;BME280;23309;52.582;13.406;2022-11-14T06:14:32;101608.59;;;14.76;47.15
37450;BME280;23309;52.582;13.406;2022-11-14T06:17:01;101613.13;;;14.85;46.90
37450;BME280;23309;52.582;13.406;2022-11-14T06:19:27;101609.44;;;14.86;46.84
37450;BME280;23309;52.582;13.406;2022-11-14T06:21:53;101611.00;;;14.88;47.00
37450;BME280;23309;52.582;13.406;2022-11-14T06:24:22;101598.69;;;14.86;46.74
37450;BME280;23309;52.582;13.406;2022-11-14T06:26:48;101599.69;;;14.75;46.69
37450;BME280;23309;52.582;13.406;2022-11-14T06:29:14;101603.78;;;14.70;47.19
37450;BME280;23309;52.582;13.406;2022-11-14T06:31:43;101601.53;;;14.75;46.94
37450;BME280;23309;52.582;13.406;2022-11-14T06:34:15;101606.19;;;14.73;47.22
37450;BME280;23309;52.582;13.406;2022-11-14T06:36:41;101603.34;;;14.65;47.27
37450;BME280;23309;52.582;13.406;2022-11-14T06:39:09;101598.13;;;14.73;46.84
37450;BME280;23309;52.582;13.406;2022-11-14T06:41:36;101599.38;;;14.69;46.71
37450;BME280;23309;52.582;13.406;2022-11-14T06:44:07;101608.75;;;14.84;46.70
37450;BME280;23309;52.582;13.406;2022-11-14T06:46:34;101592.19;;;14.69;46.88
37450;BME280;23309;52.582;13.406;2022-11-14T06:49:00;101596.44;;;14.72;46.90
37450;BME280;23309;52.582;13.406;2022-11-14T06:51:32;101596.97;;;14.75;46.85
37450;BME280;23309;52.582;13.406;2022-11-14T06:53:58;101609.00;;;14.71;46.99
37450;BME280;23309;52.582;13.406;2022-11-14T06:56:25;101600.41;;;14.77;47.32
37450;BME280;23309;52.582;13.406;2022-11-14T06:58:51;101609.88;;;14.81;46.86
37450;BME280;23309;52.582;13.406;2022-11-14T07:01:20;101586.66;;;14.71;47.05
37450;BME280;23309;52.582;13.406;2022-11-14T07:03:47;101590.19;;;14.71;46.99
37450;BME280;23309;52.582;13.406;2022-11-14T07:06:15;101594.72;;;14.71;47.04
37450;BME280;23309;52.582;13.406;2022-11-14T07:08:47;101588.50;;;14.70;47.13
37450;BME280;23309;52.582;13.406;2022-11-14T07:11:18;101601.41;;;14.76;46.88
37450;BME280;23309;52.582;13.406;2022-11-14T07:13:44;101578.44;;;14.63;46.71
37450;BME280;23309;52.582;13.406;2022-11-14T07:16:10;101603.22;;;14.76;47.27
37450;BME280;23309;52.582;13.406;2022-11-14T07:18:41;101589.06;;;14.64;47.21
37450;BME280;23309;52.582;13.406;2022-11-14T07:21:08;101596.03;;;14.76;46.87
37450;BME280;23309;52.582;13.406;2022-11-14T07:23:35;101613.41;;;14.82;46.74
37450;BME280;23309;52.582;13.406;2022-11-14T07:26:08;101609.19;;;14.89;46.86
37450;BME280;23309;52.582;13.406;2022-11-14T07:28:36;101613.56;;;14.90;46.76
37450;BME280;23309;52.582;13.406;2022-11-14T07:31:07;101602.38;;;14.85;46.67
37450;BME280;23309;52.582;13.406;2022-11-14T07:33:34;101606.91;;;14.84;46.57
37450;BME280;23309;52.582;13.406;2022-11-14T07:36:01;101609.03;;;14.81;46.82
37450;BME280;23309;52.582;13.406;2022-11-14T07:38:27;101582.84;;;14.73;46.68
37450;BME280;23309;52.582;13.406;2022-11-14T07:40:55;101594.16;;;14.77;47.21
37450;BME280;23309;52.582;13.406;2022-11-14T07:43:25;101579.16;;;14.84;47.07
37450;BME280;23309;52.582;13.406;2022-11-14T07:45:55;101564.00;;;14.92;46.86
37450;BME280;23309;52.582;13.406;2022-11-14T07:48:23;101549.28;;;15.06;46.42
37450;BME280;23309;52.582;13.406;2022-11-14T07:50:49;101576.97;;;15.25;46.08
37450;BME280;23309;52.582;13.406;2022-11-14T07:53:18;101581.50;;;15.44;45.72
37450;BME280;23309;52.582;13.406;2022-11-14T07:55:44;101587.47;;;15.38;45.48
37450;BME280;23309;52.582;13.406;2022-11-14T07:58:10;101571.59;;;15.35;45.56
37450;BME280;23309;52.582;13.406;2022-11-14T08:00:39;101574.72;;;15.40;45.39
37450;BME280;23309;52.582;13.406;2022-11-14T08:03:06;101586.00;;;15.53;45.17
37450;BME280;23309;52.582;13.406;2022-11-14T08:05:32;101584.88;;;15.55;45.00
37450;BME280;23309;52.582;13.406;2022-11-14T08:07:58;101578.78;;;15.53;44.93
37450;BME280;23309;52.582;13.406;2022-11-14T08:10:27;101567.50;;;15.40;44.93
37450;BME280;23309;52.582;13.406;2022-11-14T08:12:57;101571.47;;;15.36;44.92
37450;BME280;23309;52.582;13.406;2022-11-14T08:15:24;101572.16;;;15.29;45.46
37450;BME280;23309;52.582;13.406;2022-11-14T08:17:56;101586.59;;;15.28;45.29
37450;BME280;23309;52.582;13.406;2022-11-14T08:20:22;101570.03;;;15.23;45.44
37450;BME280;23309;52.582;13.406;2022-11-14T08:22:49;101563.97;;;15.21;45.86
37450;BME280;23309;52.582;13.406;2022-11-14T08:25:15;101583.94;;;15.37;45.23
37450;BME280;23309;52.582;13.406;2022-11-14T08:27:43;101579.94;;;15.51;45.48
37450;BME280;23309;52.582;13.406;2022-11-14T08:30:11;101570.81;;;15.61;45.20
37450;BME280;23309;52.582;13.406;2022-11-14T08:32:39;101571.28;;;15.84;45.07
37450;BME280;23309;52.582;13.406;2022-11-14T08:35:08;101570.44;;;16.10;44.39
37450;BME280;23309;52.582;13.406;2022-11-14T08:37:35;101575.41;;;16.32;44.36
37450;BME280;23309;52.582;13.406;2022-11-14T08:40:01;101575.00;;;16.54;43.16
37450;BME280;23309;52.582;13.406;2022-11-14T08:42:28;101573.41;;;16.61;42.62
37450;BME280;23309;52.582;13.406;2022-11-14T08:44:54;101571.25;;;16.47;43.05
37450;BME280;23309;52.582;13.406;2022-11-14T08:47:20;101571.97;;;16.40;42.56
37450;BME280;23309;52.582;13.406;2022-11-14T08:49:46;101561.09;;;16.32;43.12
37450;BME280;23309;52.582;13.406;2022-11-14T08:52:15;101554.69;;;16.33;43.23
37450;BME280;23309;52.582;13.406;2022-11-14T08:54:41;101549.50;;;16.22;42.94
37450;BME280;23309;52.582;13.406;2022-11-14T08:57:07;101577.44;;;16.30;42.98
37450;BME280;23309;52.582;13.406;2022-11-14T08:59:33;101559.38;;;16.31;42.88
37450;BME280;23309;52.582;13.406;2022-11-14T09:01:59;101549.06;;;16.26;43.14
37450;BME280;23309;52.582;13.406;2022-11-14T09:04:26;101562.16;;;16.39;43.13
37450;BME280;23309;52.582;13.406;2022-11-14T09:06:52;101567.31;;;16.59;42.87
37450;BME280;23309;52.582;13.406;2022-11-14T09:09:20;101559.28;;;16.85;42.75
37450;BME280;23309;52.582;13.406;2022-11-14T09:11:46;101556.56;;;17.02;41.56
37450;BME280;23309;52.582;13.406;2022-11-14T09:14:13;101546.94;;;17.25;41.32
37450;BME280;23309;52.582;13.406;2022-11-14T09:16:39;101537.69;;;17.53;40.69
37450;BME280;23309;52.582;13.406;2022-11-14T09:19:05;101535.00;;;17.87;40.55
37450;BME280;23309;52.582;13.406;2022-11-14T09:21:31;101524.75;;;18.06;39.77
37450;BME280;23309;52.582;13.406;2022-11-14T09:24:00;101516.59;;;18.40;39.58
37450;BME280;23309;52.582;13.406;2022-11-14T09:26:29;101526.75;;;18.78;38.47
37450;BME280;23309;52.582;13.406;2022-11-14T09:29:04;101522.88;;;19.05;37.90
37450;BME280;23309;52.582;13.406;2022-11-14T09:31:30;101526.59;;;19.36;37.70
37450;BME280;23309;52.582;13.406;2022-11-14T09:33:56;101538.31;;;19.75;36.65
37450;BME280;23309;52.582;13.406;2022-11-14T09:36:22;101529.22;;;20.06;36.31
37450;BME280;23309;52.582;13.406;2022-11-14T09:38:50;101527.88;;;20.33;35.47
37450;BME280;23309;52.582;13.406;2022-11-14T09:41:23;101518.03;;;20.40;35.17
37450;BME280;23309;52.582;13.406;2022-11-14T09:47:10;101530.75;;;20.84;34.53
37450;BME280;23309;52.582;13.406;2022-11-14T09:49:39;101519.66;;;20.49;34.41
37450;BME280;23309;52.582;13.406;2022-11-14T09:52:16;101535.63;;;20.66;34.40
37450;BME280;23309;52.582;13.406;2022-11-14T09:54:52;101515.56;;;20.53;33.99
37450;BME280;23309;52.582;13.406;2022-11-14T09:57:21;101525.88;;;20.80;34.22
37450;BME280;23309;52.582;13.406;2022-11-14T09:59:48;101524.88;;;21.18;34.06
37450;BME280;23309;52.582;13.406;2022-11-14T10:02:33;101480.94;;;21.29;33.36
37450;BME280;23309;52.582;13.406;2022-11-14T10:05:43;101507.94;;;21.88;33.04
37450;BME280;23309;52.582;13.406;2022-11-14T10:08:36;101513.81;;;22.06;32.42
37450;BME280;23309;52.582;13.406;2022-11-14T10:11:07;101498.09;;;22.02;32.29
37450;BME280;23309;52.582;13.406;2022-11-14T10:13:57;101481.16;;;22.06;32.22
37450;BME280;23309;52.582;13.406;2022-11-14T10:16:35;101459.28;;;21.93;32.02
37450;BME280;23309;52.582;13.406;2022-11-14T10:19:16;101478.88;;;22.24;31.88
37450;BME280;23309;52.582;13.406;2022-11-14T10:21:53;101467.03;;;22.32;32.02
37450;BME280;23309;52.582;13.406;2022-11-14T10:24:47;101476.72;;;22.55;31.62
37450;BME280;23309;52.582;13.406;2022-11-14T10:27:19;101456.09;;;22.46;31.26
37450;BME280;23309;52.582;13.406;2022-11-14T10:30:10;101451.94;;;22.50;31.24
37450;BME280;23309;52.582;13.406;2022-11-14T10:33:05;101474.47;;;22.59;31.27
37450;BME280;23309;52.582;13.406;2022-11-14T10:35:41;101486.25;;;22.66;31.35
37450;BME280;23309;52.582;13.406;2022-11-14T10:38:14;101457.00;;;22.74;31.70
37450;BME280;23309;52.582;13.406;2022-11-14T10:40:47;101468.09;;;23.00;30.77
37450;BME280;23309;52.582;13.406;2022-11-14T10:43:24;101469.41;;;23.32;30.55
37450;BME280;23309;52.582;13.406;2022-11-14T10:45:56;101471.56;;;23.43;30.56
37450;BME280;23309;52.582;13.406;2022-11-14T10:48:30;101464.16;;;23.64;29.92
37450;BME280;23309;52.582;13.406;2022-11-14T10:51:04;101465.94;;;23.85;29.84
37450;BME280;23309;52.582;13.406;2022-11-14T10:53:44;101436.00;;;23.98;29.35
37450;BME280;23309;52.582;13.406;2022-11-14T10:56:13;101423.59;;;24.02;29.01
37450;BME280;23309;52.582;13.406;2022-11-14T10:58:39;101456.84;;;24.25;29.19
37450;BME280;23309;52.582;13.406;2022-11-14T11:01:43;101440.25;;;24.39;28.33
37450;BME280;23309;52.582;13.406;2022-11-14T11:04:23;101447.16;;;24.16;28.49
37450;BME280;23309;52.582;13.406;2022-11-14T11:06:54;101439.47;;;23.85;29.02
37450;BME280;23309;52.582;13.406;2022-11-14T11:09:23;101444.41;;;24.03;28.93
37450;BME280;23309;52.582;13.406;2022-11-14T11:11:56;101429.75;;;24.30;28.92
37450;BME280;23309;52.582;13.406;2022-11-14T11:14:23;101434.63;;;24.54;28.30
37450;BME280;23309;52.582;13.406;2022-11-14T11:16:49;101435.00;;;24.44;28.53
37450;BME280;23309;52.582;13.406;2022-11-14T11:19:31;101414.44;;;24.48;27.95
37450;BME280;23309;52.582;13.406;2022-11-14T11:22:02;101428.34;;;24.60;28.62
37450;BME280;23309;52.582;13.406;2022-11-14T11:24:33;101430.00;;;24.87;28.08
37450;BME280;23309;52.582;13.406;2022-11-14T11:27:19;101427.25;;;25.13;28.06
37450;BME280;23309;52.582;13.406;2022-11-14T11:29:45;101404.13;;;25.09;27.07
37450;BME280;23309;52.582;13.406;2022-11-14T11:32:23;101413.16;;;25.22;27.55
37450;BME280;23309;52.582;13.406;2022-11-14T11:34:50;101398.03;;;25.20;27.54
37450;BME280;23309;52.582;13.406;2022-11-14T11:37:23;101408.31;;;25.18;27.15
37450;BME280;23309;52.582;13.406;2022-11-14T11:39:54;101404.09;;;25.22;26.97
37450;BME280;23309;52.582;13.406;2022-11-14T11:42:27;101394.63;;;25.31;27.47
37450;BME280;23309;52.582;13.406;2022-11-14T11:45:00;101386.41;;;25.24;27.26
37450;BME280;23309;52.582;13.406;2022-11-14T11:47:31;101382.88;;;25.37;27.43
37450;BME280;23309;52.582;13.406;2022-11-14T11:50:01;101367.09;;;25.19;27.09
37450;BME280;23309;52.582;13.406;2022-11-14T11:52:38;101381.63;;;25.20;27.46
37450;BME280;23309;52.582;13.406;2022-11-14T11:55:16;101375.81;;;24.84;27.44
37450;BME280;23309;52.582;13.406;2022-11-14T11:57:45;101376.88;;;24.63;27.81
37450;BME280;23309;52.582;13.406;2022-11-14T12:00:19;101380.41;;;24.77;27.69
37450;BME280;23309;52.582;13.406;2022-11-14T12:02:48;101382.34;;;24.70;27.33
37450;BME280;23309;52.582;13.406;2022-11-14T12:05:17;101355.63;;;24.65;27.54
37450;BME280;23309;52.582;13.406;2022-11-14T12:07:57;101366.56;;;24.72;27.70
37450;BME280;23309;52.582;13.406;2022-11-14T12:10:29;101352.06;;;24.58;27.87
37450;BME280;23309;52.582;13.406;2022-11-14T12:16:07;101361.50;;;24.69;27.90
37450;BME280;23309;52.582;13.406;2022-11-14T12:22:10;101359.19;;;24.53;27.78
37450;BME280;23309;52.582;13.406;2022-11-14T12:28:05;101367.41;;;24.66;27.80
37450;BME280;23309;52.582;13.406;2022-11-14T12:30:38;101363.81;;;24.72;27.81
37450;BME280;23309;52.582;13.406;2022-11-14T12:33:09;101363.63;;;24.80;27.80
37450;BME280;23309;52.582;13.406;2022-11-14T12:35:38;101374.53;;;24.80;27.92
37450;BME280;23309;52.582;13.406;2022-11-14T12:38:17;101359.22;;;24.66;27.76
37450;BME280;23309;52.582;13.406;2022-11-14T12:40:53;101362.34;;;24.69;27.83
37450;BME280;23309;52.582;13.406;2022-11-14T12:43:34;101352.06;;;24.52;27.49
37450;BME280;23309;52.582;13.406;2022-11-14T12:46:10;101312.16;;;24.25;28.11
37450;BME280;23309;52.582;13.406;2022-11-14T12:48:40;101348.47;;;24.58;27.86
37450;BME280;23309;52.582;13.406;2022-11-14T12:51:49;101342.63;;;24.67;27.63
37450;BME280;23309;52.582;13.406;2022-11-14T12:54:44;101344.69;;;24.52;27.96
37450;BME280;23309;52.582;13.406;2022-11-14T12:57:21;101349.13;;;24.40;28.39
37450;BME280;23309;52.582;13.406;2022-11-14T13:00:00;101328.72;;;24.36;28.03
37450;BME280;23309;52.582;13.406;2022-11-14T13:02:56;101349.72;;;24.55;27.79
37450;BME280;23309;52.582;13.406;2022-11-14T13:05:53;101349.94;;;24.34;28.44
37450;BME280;23309;52.582;13.406;2022-11-14T13:08:51;101339.88;;;24.35;28.46